sensor_id;sensor_type;location;lat;lon;timestamp;temperature;humidity
13123;DHT22;6627;50.920;12.050;2023-07-13T00:02:18;19.40;99.90
13123;DHT22;6627;50.920;12.050;2023-07-13T00:04:47;19.40;99.90
13123;DHT22;6627;50.920;12.050;2023-07-13T00:07:17;19.70;99.90
13123;DHT22;6627;50.920;12.050;2023-07-13T00:09:47;19.60;99.90
13123;DHT22;6627;50.920;12.050;2023-07-13T00:12:28;19.50;99.90
13123;DHT22;6627;50.920;12.050;2023-07-13T00:14:58;19.70;99.90
13123;DHT22;6627;50.920;12.050;2023-07-13T00:17:31;19.50;99.90
13123;DHT22;6627;50.920;12.050;2023-07-13T00:20:10;19.40;99.90
13123;DHT22;6627;50.920;12.050;2023-07-13T00:22:38;19.70;99.90
13123;DHT22;6627;50.920;12.050;2023-07-13T00:25:07;19.80;99.90
13123;DHT22;6627;50.920;12.050;2023-07-13T00:27:37;19.90;99.90
13123;DHT22;6627;50.920;12.050;2023-07-13T00:30:11;20.00;99.90
13123;DHT22;6627;50.920;12.050;2023-07-13T00:32:39;19.80;99.90
13123;DHT22;6627;50.920;12.050;2023-07-13T00:35:08;19.60;99.90
13123;DHT22;6627;50.920;12.050;2023-07-13T00:37:38;19.50;99.90
13123;DHT22;6627;50.920;12.050;2023-07-13T00:40:09;19.40;99.90
13123;DHT22;6627;50.920;12.050;2023-07-13T00:42:46;19.30;99.90
13123;DHT22;6627;50.920;12.050;2023-07-13T00:48:38;19.40;99.90
13123;DHT22;6627;50.920;12.050;2023-07-13T00:51:07;19.20;99.90
13123;DHT22;6627;50.920;12.050;2023-07-13T00:53:37;19.10;99.90
13123;DHT22;6627;50.920;12.050;2023-07-13T00:56:06;19.20;99.90
13123;DHT22;6627;50.920;12.050;2023-07-13T00:58:37;19.30;99.90
13123;DHT22;6627;50.920;12.050;2023-07-13T01:01:05;19.30;99.90
13123;DHT22;6627;50.920;12.050;2023-07-13T01:03:34;19.20;99.90
13123;DHT22;6627;50.920;12.050;2023-07-13T01:06:05;19.30;99.90
13123;DHT22;6627;50.920;12.050;2023-07-13T01:08:33;19.40;99.90
13123;DHT22;6627;50.920;12.050;2023-07-13T01:11:01;19.60;99.90
13123;DHT22;6627;50.920;12.050;2023-07-13T01:13:37;19.60;99.90
13123;DHT22;6627;50.920;12.050;2023-07-13T01:16:15;19.70;99.90
13123;DHT22;6627;50.920;12.050;2023-07-13T01:19:00;19.70;99.90
13123;DHT22;6627;50.920;12.050;2023-07-13T01:21:35;19.70;99.90
13123;DHT22;6627;50.920;12.050;2023-07-13T01:24:10;19.30;99.90
13123;DHT22;6627;50.920;12.050;2023-07-13T01:26:57;19.20;99.90
13123;DHT22;6627;50.920;12.050;2023-07-13T01:29:26;19.40;99.90
13123;DHT22;6627;50.920;12.050;2023-07-13T01:31:55;19.50;99.90
13123;DHT22;6627;50.920;12.050;2023-07-13T01:34:24;19.50;99.90
13123;DHT22;6627;50.920;12.050;2023-07-13T01:36:56;19.50;99.90
13123;DHT22;6627;50.920;12.050;2023-07-13T01:39:24;19.30;99.90
13123;DHT22;6627;50.920;12.050;2023-07-13T01:41:52;19.40;99.90
13123;DHT22;6627;50.920;12.050;2023-07-13T01:44:36;19.40;99.90
13123;DHT22;6627;50.920;12.050;2023-07-13T01:47:11;19.20;99.90
13123;DHT22;6627;50.920;12.050;2023-07-13T01:49:58;18.90;99.90
13123;DHT22;6627;50.920;12.050;2023-07-13T01:52:46;19.00;99.90
13123;DHT22;6627;50.920;12.050;2023-07-13T01:55:34;19.20;99.90
13123;DHT22;6627;50.920;12.050;2023-07-13T01:58:21;18.90;99.90
13123;DHT22;6627;50.920;12.050;2023-07-13T02:00:51;18.70;99.90
13123;DHT22;6627;50.920;12.050;2023-07-13T02:03:20;18.50;99.90
13123;DHT22;6627;50.920;12.050;2023-07-13T02:05:49;18.50;99.90
13123;DHT22;6627;50.920;12.050;2023-07-13T02:08:17;18.60;99.90
13123;DHT22;6627;50.920;12.050;2023-07-13T02:10:45;18.30;99.90
13123;DHT22;6627;50.920;12.050;2023-07-13T02:13:12;18.20;99.90
13123;DHT22;6627;50.920;12.050;2023-07-13T02:15:39;18.00;99.90
13123;DHT22;6627;50.920;12.050;2023-07-13T02:18:07;18.10;99.90
13123;DHT22;6627;50.920;12.050;2023-07-13T02:20:34;18.00;99.90
13123;DHT22;6627;50.920;12.050;2023-07-13T02:23:02;17.90;99.90
13123;DHT22;6627;50.920;12.050;2023-07-13T02:25:30;17.90;99.90
13123;DHT22;6627;50.920;12.050;2023-07-13T02:27:58;17.90;99.90
13123;DHT22;6627;50.920;12.050;2023-07-13T02:30:25;18.10;99.90
13123;DHT22;6627;50.920;12.050;2023-07-13T02:32:52;18.20;99.90
13123;DHT22;6627;50.920;12.050;2023-07-13T02:35:19;18.10;99.90
13123;DHT22;6627;50.920;12.050;2023-07-13T02:37:46;17.90;99.90
13123;DHT22;6627;50.920;12.050;2023-07-13T02:40:13;17.80;99.90
13123;DHT22;6627;50.920;12.050;2023-07-13T02:42:42;17.60;99.90
13123;DHT22;6627;50.920;12.050;2023-07-13T02:45:10;17.80;99.90
13123;DHT22;6627;50.920;12.050;2023-07-13T02:47:40;18.00;99.90
13123;DHT22;6627;50.920;12.050;2023-07-13T02:50:09;17.80;99.90
13123;DHT22;6627;50.920;12.050;2023-07-13T02:52:36;17.60;99.90
13123;DHT22;6627;50.920;12.050;2023-07-13T02:55:03;17.70;99.90
13123;DHT22;6627;50.920;12.050;2023-07-13T02:57:31;17.60;99.90
13123;DHT22;6627;50.920;12.050;2023-07-13T03:00:00;17.50;99.90
13123;DHT22;6627;50.920;12.050;2023-07-13T03:02:31;17.60;99.90
13123;DHT22;6627;50.920;12.050;2023-07-13T03:04:58;17.70;99.90
13123;DHT22;6627;50.920;12.050;2023-07-13T03:07:25;17.80;99.90
13123;DHT22;6627;50.920;12.050;2023-07-13T03:09:54;18.00;99.90
13123;DHT22;6627;50.920;12.050;2023-07-13T03:12:23;18.00;99.90
13123;DHT22;6627;50.920;12.050;2023-07-13T03:14:50;17.90;99.90
13123;DHT22;6627;50.920;12.050;2023-07-13T03:17:19;17.90;99.90
13123;DHT22;6627;50.920;12.050;2023-07-13T03:19:46;17.70;99.90
13123;DHT22;6627;50.920;12.050;2023-07-13T03:22:15;17.50;99.90
13123;DHT22;6627;50.920;12.050;2023-07-13T03:24:43;17.40;99.90
13123;DHT22;6627;50.920;12.050;2023-07-13T03:32:06;17.40;99.90
13123;DHT22;6627;50.920;12.050;2023-07-13T03:34:35;17.30;99.90
13123;DHT22;6627;50.920;12.050;2023-07-13T03:37:03;17.30;99.90
13123;DHT22;6627;50.920;12.050;2023-07-13T03:39:30;17.30;99.90
13123;DHT22;6627;50.920;12.050;2023-07-13T03:41:58;17.40;99.90
13123;DHT22;6627;50.920;12.050;2023-07-13T03:44:25;17.70;99.90
13123;DHT22;6627;50.920;12.050;2023-07-13T03:46:52;17.90;99.90
13123;DHT22;6627;50.920;12.050;2023-07-13T03:49:20;18.10;99.90
13123;DHT22;6627;50.920;12.050;2023-07-13T03:51:48;18.20;99.90
13123;DHT22;6627;50.920;12.050;2023-07-13T03:54:15;18.10;99.90
13123;DHT22;6627;50.920;12.050;2023-07-13T03:56:42;18.00;99.90
13123;DHT22;6627;50.920;12.050;2023-07-13T03:59:10;18.10;99.90
13123;DHT22;6627;50.920;12.050;2023-07-13T04:01:38;18.20;99.90
13123;DHT22;6627;50.920;12.050;2023-07-13T04:04:06;18.20;99.90
13123;DHT22;6627;50.920;12.050;2023-07-13T04:06:34;18.20;99.90
13123;DHT22;6627;50.920;12.050;2023-07-13T04:09:03;18.30;99.90
13123;DHT22;6627;50.920;12.050;2023-07-13T04:11:32;18.30;99.90
13123;DHT22;6627;50.920;12.050;2023-07-13T04:14:00;18.30;99.90
13123;DHT22;6627;50.920;12.050;2023-07-13T04:16:27;18.30;99.90
13123;DHT22;6627;50.920;12.050;2023-07-13T04:18:55;18.30;99.90
13123;DHT22;6627;50.920;12.050;2023-07-13T04:21:25;18.00;99.90
13123;DHT22;6627;50.920;12.050;2023-07-13T04:23:53;17.80;99.90
13123;DHT22;6627;50.920;12.050;2023-07-13T04:26:23;17.80;99.90
13123;DHT22;6627;50.920;12.050;2023-07-13T04:28:51;18.00;99.90
13123;DHT22;6627;50.920;12.050;2023-07-13T04:31:18;18.10;99.90
13123;DHT22;6627;50.920;12.050;2023-07-13T04:33:46;17.90;99.90
13123;DHT22;6627;50.920;12.050;2023-07-13T04:36:14;17.60;99.90
13123;DHT22;6627;50.920;12.050;2023-07-13T04:38:42;17.60;99.90
13123;DHT22;6627;50.920;12.050;2023-07-13T04:41:10;17.80;99.90
13123;DHT22;6627;50.920;12.050;2023-07-13T04:43:39;17.80;99.90
13123;DHT22;6627;50.920;12.050;2023-07-13T04:46:08;17.60;99.90
13123;DHT22;6627;50.920;12.050;2023-07-13T04:48:38;17.80;99.90
13123;DHT22;6627;50.920;12.050;2023-07-13T04:51:05;17.80;99.90
13123;DHT22;6627;50.920;12.050;2023-07-13T04:53:33;17.80;99.90
13123;DHT22;6627;50.920;12.050;2023-07-13T04:58:29;17.90;99.90
13123;DHT22;6627;50.920;12.050;2023-07-13T05:01:01;17.90;99.90
13123;DHT22;6627;50.920;12.050;2023-07-13T05:03:29;18.00;99.90
13123;DHT22;6627;50.920;12.050;2023-07-13T05:05:59;18.00;99.90
13123;DHT22;6627;50.920;12.050;2023-07-13T05:08:27;17.90;99.90
13123;DHT22;6627;50.920;12.050;2023-07-13T05:10:55;17.90;99.90
13123;DHT22;6627;50.920;12.050;2023-07-13T05:13:22;18.00;99.90
13123;DHT22;6627;50.920;12.050;2023-07-13T05:15:56;18.10;99.90
13123;DHT22;6627;50.920;12.050;2023-07-13T05:18:26;18.40;99.90
13123;DHT22;6627;50.920;12.050;2023-07-13T05:20:59;18.30;99.90
13123;DHT22;6627;50.920;12.050;2023-07-13T05:23:28;18.20;99.90
13123;DHT22;6627;50.920;12.050;2023-07-13T05:25:55;18.40;99.90
13123;DHT22;6627;50.920;12.050;2023-07-13T05:28:23;18.30;99.90
13123;DHT22;6627;50.920;12.050;2023-07-13T05:30:52;18.20;99.90
13123;DHT22;6627;50.920;12.050;2023-07-13T05:33:20;18.30;99.90
13123;DHT22;6627;50.920;12.050;2023-07-13T05:35:48;18.20;99.90
13123;DHT22;6627;50.920;12.050;2023-07-13T05:38:16;18.20;99.90
13123;DHT22;6627;50.920;12.050;2023-07-13T05:40:43;18.30;99.90
13123;DHT22;6627;50.920;12.050;2023-07-13T05:43:10;18.50;99.90
13123;DHT22;6627;50.920;12.050;2023-07-13T05:45:38;18.70;99.90
13123;DHT22;6627;50.920;12.050;2023-07-13T05:48:06;18.80;99.90
13123;DHT22;6627;50.920;12.050;2023-07-13T05:50:33;18.80;99.90
13123;DHT22;6627;50.920;12.050;2023-07-13T05:53:02;18.80;99.90
13123;DHT22;6627;50.920;12.050;2023-07-13T05:55:29;18.70;99.90
13123;DHT22;6627;50.920;12.050;2023-07-13T05:57:56;18.90;99.90
13123;DHT22;6627;50.920;12.050;2023-07-13T06:00:25;18.90;99.90
13123;DHT22;6627;50.920;12.050;2023-07-13T06:02:52;19.10;99.90
13123;DHT22;6627;50.920;12.050;2023-07-13T06:05:19;19.00;99.90
13123;DHT22;6627;50.920;12.050;2023-07-13T06:07:46;19.00;99.90
13123;DHT22;6627;50.920;12.050;2023-07-13T06:10:15;19.30;99.90
13123;DHT22;6627;50.920;12.050;2023-07-13T06:12:42;19.20;99.90
13123;DHT22;6627;50.920;12.050;2023-07-13T06:15:11;19.20;99.90
13123;DHT22;6627;50.920;12.050;2023-07-13T06:17:39;19.50;99.90
13123;DHT22;6627;50.920;12.050;2023-07-13T06:20:07;19.70;99.90
13123;DHT22;6627;50.920;12.050;2023-07-13T06:22:34;19.80;99.90
13123;DHT22;6627;50.920;12.050;2023-07-13T06:25:02;20.00;99.90
13123;DHT22;6627;50.920;12.050;2023-07-13T06:27:31;20.10;99.90
13123;DHT22;6627;50.920;12.050;2023-07-13T06:29:58;20.10;99.90
13123;DHT22;6627;50.920;12.050;2023-07-13T06:32:26;20.40;99.90
13123;DHT22;6627;50.920;12.050;2023-07-13T06:34:53;20.60;99.90
13123;DHT22;6627;50.920;12.050;2023-07-13T06:37:20;20.50;99.90
13123;DHT22;6627;50.920;12.050;2023-07-13T06:39:47;20.60;99.90
13123;DHT22;6627;50.920;12.050;2023-07-13T06:42:16;20.90;99.90
13123;DHT22;6627;50.920;12.050;2023-07-13T06:44:45;21.10;99.90
13123;DHT22;6627;50.920;12.050;2023-07-13T06:47:12;21.30;99.90
13123;DHT22;6627;50.920;12.050;2023-07-13T06:49:39;21.30;99.90
13123;DHT22;6627;50.920;12.050;2023-07-13T06:52:06;21.40;99.90
13123;DHT22;6627;50.920;12.050;2023-07-13T06:54:34;21.50;99.90
13123;DHT22;6627;50.920;12.050;2023-07-13T06:57:01;21.60;99.90
13123;DHT22;6627;50.920;12.050;2023-07-13T06:59:29;21.80;99.90
13123;DHT22;6627;50.920;12.050;2023-07-13T07:01:57;21.70;99.90
13123;DHT22;6627;50.920;12.050;2023-07-13T07:04:24;21.50;99.90
13123;DHT22;6627;50.920;12.050;2023-07-13T07:06:51;21.60;99.90
13123;DHT22;6627;50.920;12.050;2023-07-13T07:09:19;21.50;99.90
13123;DHT22;6627;50.920;12.050;2023-07-13T07:11:46;21.70;99.90
13123;DHT22;6627;50.920;12.050;2023-07-13T07:14:13;22.10;99.90
13123;DHT22;6627;50.920;12.050;2023-07-13T07:16:41;22.10;99.90
13123;DHT22;6627;50.920;12.050;2023-07-13T07:19:09;22.40;99.90
13123;DHT22;6627;50.920;12.050;2023-07-13T07:21:36;22.60;99.90
13123;DHT22;6627;50.920;12.050;2023-07-13T07:24:04;22.80;99.90
13123;DHT22;6627;50.920;12.050;2023-07-13T07:26:32;22.80;99.90
13123;DHT22;6627;50.920;12.050;2023-07-13T07:28:59;23.30;99.90
13123;DHT22;6627;50.920;12.050;2023-07-13T07:31:26;23.10;99.90
13123;DHT22;6627;50.920;12.050;2023-07-13T07:36:22;23.00;99.90
13123;DHT22;6627;50.920;12.050;2023-07-13T07:38:49;23.30;99.90
13123;DHT22;6627;50.920;12.050;2023-07-13T07:41:17;23.40;99.90
13123;DHT22;6627;50.920;12.050;2023-07-13T07:43:44;23.60;99.90
13123;DHT22;6627;50.920;12.050;2023-07-13T07:46:11;24.10;99.90
13123;DHT22;6627;50.920;12.050;2023-07-13T07:48:38;23.90;99.90
13123;DHT22;6627;50.920;12.050;2023-07-13T07:51:05;23.50;99.90
13123;DHT22;6627;50.920;12.050;2023-07-13T07:53:34;24.00;99.90
13123;DHT22;6627;50.920;12.050;2023-07-13T07:56:01;24.30;99.90
13123;DHT22;6627;50.920;12.050;2023-07-13T07:58:28;24.20;99.90
13123;DHT22;6627;50.920;12.050;2023-07-13T08:01:02;24.60;99.90
13123;DHT22;6627;50.920;12.050;2023-07-13T08:03:31;24.80;99.90
13123;DHT22;6627;50.920;12.050;2023-07-13T08:05:58;24.90;99.90
13123;DHT22;6627;50.920;12.050;2023-07-13T08:10:54;24.10;99.90
13123;DHT22;6627;50.920;12.050;2023-07-13T08:13:21;23.90;99.90
13123;DHT22;6627;50.920;12.050;2023-07-13T08:15:48;24.30;99.90
13123;DHT22;6627;50.920;12.050;2023-07-13T08:18:16;24.70;99.90
13123;DHT22;6627;50.920;12.050;2023-07-13T08:20:44;24.70;99.90
13123;DHT22;6627;50.920;12.050;2023-07-13T08:25:38;23.50;99.90
13123;DHT22;6627;50.920;12.050;2023-07-13T08:28:07;23.20;99.90
13123;DHT22;6627;50.920;12.050;2023-07-13T08:30:34;23.40;99.90
13123;DHT22;6627;50.920;12.050;2023-07-13T08:33:02;23.40;99.90
13123;DHT22;6627;50.920;12.050;2023-07-13T08:35:29;23.30;99.90
13123;DHT22;6627;50.920;12.050;2023-07-13T08:37:57;23.10;99.90
13123;DHT22;6627;50.920;12.050;2023-07-13T08:40:27;23.10;99.90
13123;DHT22;6627;50.920;12.050;2023-07-13T08:42:57;22.80;99.90
13123;DHT22;6627;50.920;12.050;2023-07-13T08:45:39;23.20;99.90
13123;DHT22;6627;50.920;12.050;2023-07-13T08:48:13;23.70;99.90
13123;DHT22;6627;50.920;12.050;2023-07-13T08:50:51;24.00;99.90
13123;DHT22;6627;50.920;12.050;2023-07-13T08:53:24;23.20;99.90
13123;DHT22;6627;50.920;12.050;2023-07-13T08:55:58;23.20;99.90
13123;DHT22;6627;50.920;12.050;2023-07-13T08:58:27;23.30;99.90
13123;DHT22;6627;50.920;12.050;2023-07-13T09:01:03;23.70;99.90
13123;DHT22;6627;50.920;12.050;2023-07-13T09:03:46;24.20;99.90
13123;DHT22;6627;50.920;12.050;2023-07-13T09:06:27;24.60;99.90
13123;DHT22;6627;50.920;12.050;2023-07-13T09:09:02;24.70;99.90
13123;DHT22;6627;50.920;12.050;2023-07-13T09:11:45;24.60;99.90
13123;DHT22;6627;50.920;12.050;2023-07-13T09:14:34;24.60;99.90
13123;DHT22;6627;50.920;12.050;2023-07-13T09:17:14;24.50;99.90
13123;DHT22;6627;50.920;12.050;2023-07-13T09:22:21;24.20;99.90
13123;DHT22;6627;50.920;12.050;2023-07-13T09:27:33;23.80;99.90
13123;DHT22;6627;50.920;12.050;2023-07-13T09:30:17;23.60;99.90
13123;DHT22;6627;50.920;12.050;2023-07-13T09:32:53;23.50;99.90
13123;DHT22;6627;50.920;12.050;2023-07-13T09:35:23;23.30;99.90
13123;DHT22;6627;50.920;12.050;2023-07-13T09:37:58;23.20;99.90
13123;DHT22;6627;50.920;12.050;2023-07-13T09:40:39;23.30;99.90
13123;DHT22;6627;50.920;12.050;2023-07-13T09:48:16;23.90;99.90
13123;DHT22;6627;50.920;12.050;2023-07-13T09:50:44;23.80;99.90
13123;DHT22;6627;50.920;12.050;2023-07-13T09:53:13;23.80;99.90
13123;DHT22;6627;50.920;12.050;2023-07-13T09:58:13;23.80;99.90
13123;DHT22;6627;50.920;12.050;2023-07-13T10:00:43;23.90;99.90
13123;DHT22;6627;50.920;12.050;2023-07-13T10:03:25;24.20;99.90
13123;DHT22;6627;50.920;12.050;2023-07-13T10:05:54;24.30;99.90
13123;DHT22;6627;50.920;12.050;2023-07-13T10:08:29;24.60;99.90
13123;DHT22;6627;50.920;12.050;2023-07-13T10:10:59;24.80;99.90
13123;DHT22;6627;50.920;12.050;2023-07-13T10:16:04;25.10;99.90
13123;DHT22;6627;50.920;12.050;2023-07-13T10:18:39;25.50;99.90
13123;DHT22;6627;50.920;12.050;2023-07-13T10:21:13;25.20;98.20
13123;DHT22;6627;50.920;12.050;2023-07-13T10:23:45;24.70;99.90
13123;DHT22;6627;50.920;12.050;2023-07-13T10:26:19;24.80;99.90
13123;DHT22;6627;50.920;12.050;2023-07-13T10:28:53;24.70;99.90
13123;DHT22;6627;50.920;12.050;2023-07-13T10:33:53;24.70;98.60
13123;DHT22;6627;50.920;12.050;2023-07-13T10:36:31;25.10;98.50
13123;DHT22;6627;50.920;12.050;2023-07-13T10:39:05;25.40;99.90
13123;DHT22;6627;50.920;12.050;2023-07-13T10:41:36;25.50;98.80
13123;DHT22;6627;50.920;12.050;2023-07-13T10:44:15;25.80;98.30
13123;DHT22;6627;50.920;12.050;2023-07-13T10:49:23;25.70;96.50
13123;DHT22;6627;50.920;12.050;2023-07-13T10:51:51;25.70;94.70
13123;DHT22;6627;50.920;12.050;2023-07-13T10:57:06;25.60;90.50
13123;DHT22;6627;50.920;12.050;2023-07-13T10:59:43;25.70;90.10
13123;DHT22;6627;50.920;12.050;2023-07-13T11:02:23;25.70;89.20
13123;DHT22;6627;50.920;12.050;2023-07-13T11:04:55;25.80;87.80
13123;DHT22;6627;50.920;12.050;2023-07-13T11:07:26;25.90;89.70
13123;DHT22;6627;50.920;12.050;2023-07-13T11:09:56;26.10;90.70
13123;DHT22;6627;50.920;12.050;2023-07-13T11:12:49;26.00;90.00
13123;DHT22;6627;50.920;12.050;2023-07-13T11:18:03;25.60;86.30
13123;DHT22;6627;50.920;12.050;2023-07-13T11:20:40;25.20;86.80
13123;DHT22;6627;50.920;12.050;2023-07-13T11:23:17;24.90;87.70
13123;DHT22;6627;50.920;12.050;2023-07-13T11:25:47;25.00;87.50
13123;DHT22;6627;50.920;12.050;2023-07-13T11:33:55;25.80;99.90
13123;DHT22;6627;50.920;12.050;2023-07-13T11:39:02;26.10;81.00
13123;DHT22;6627;50.920;12.050;2023-07-13T11:41:43;26.20;81.30
13123;DHT22;6627;50.920;12.050;2023-07-13T11:44:16;26.40;84.00
13123;DHT22;6627;50.920;12.050;2023-07-13T11:46:46;26.50;74.50
13123;DHT22;6627;50.920;12.050;2023-07-13T11:51:46;26.60;72.20
13123;DHT22;6627;50.920;12.050;2023-07-13T11:54:27;26.80;73.10
13123;DHT22;6627;50.920;12.050;2023-07-13T11:56:57;26.70;72.60
13123;DHT22;6627;50.920;12.050;2023-07-13T11:59:29;26.80;75.90
13123;DHT22;6627;50.920;12.050;2023-07-13T12:01:59;26.90;74.30
13123;DHT22;6627;50.920;12.050;2023-07-13T12:07:06;26.90;70.70
13123;DHT22;6627;50.920;12.050;2023-07-13T12:09:41;26.90;68.00
13123;DHT22;6627;50.920;12.050;2023-07-13T12:12:12;26.80;67.10
13123;DHT22;6627;50.920;12.050;2023-07-13T12:14:41;26.60;67.00
13123;DHT22;6627;50.920;12.050;2023-07-13T12:17:15;26.50;64.00
13123;DHT22;6627;50.920;12.050;2023-07-13T12:22:17;26.90;63.80
13123;DHT22;6627;50.920;12.050;2023-07-13T12:24:46;27.00;66.70
13123;DHT22;6627;50.920;12.050;2023-07-13T12:27:19;27.20;65.50
13123;DHT22;6627;50.920;12.050;2023-07-13T12:32:19;27.20;62.00
13123;DHT22;6627;50.920;12.050;2023-07-13T12:34:54;27.00;61.70
13123;DHT22;6627;50.920;12.050;2023-07-13T12:37:24;27.10;63.20
13123;DHT22;6627;50.920;12.050;2023-07-13T12:39:52;27.10;63.70
13123;DHT22;6627;50.920;12.050;2023-07-13T12:42:21;27.30;63.20
13123;DHT22;6627;50.920;12.050;2023-07-13T12:44:54;27.10;61.50
13123;DHT22;6627;50.920;12.050;2023-07-13T12:47:24;27.10;60.10
13123;DHT22;6627;50.920;12.050;2023-07-13T12:49:55;27.00;61.70
13123;DHT22;6627;50.920;12.050;2023-07-13T12:52:34;26.90;59.70
13123;DHT22;6627;50.920;12.050;2023-07-13T12:55:05;26.60;60.60
13123;DHT22;6627;50.920;12.050;2023-07-13T12:57:41;26.70;58.40
13123;DHT22;6627;50.920;12.050;2023-07-13T13:02:55;26.80;60.30
13123;DHT22;6627;50.920;12.050;2023-07-13T13:05:27;27.00;63.10
13123;DHT22;6627;50.920;12.050;2023-07-13T13:07:55;26.60;61.80
13123;DHT22;6627;50.920;12.050;2023-07-13T13:10:23;26.40;61.80
13123;DHT22;6627;50.920;12.050;2023-07-13T13:12:50;26.40;63.10
13123;DHT22;6627;50.920;12.050;2023-07-13T13:15:18;26.70;63.30
13123;DHT22;6627;50.920;12.050;2023-07-13T13:17:48;26.90;63.60
13123;DHT22;6627;50.920;12.050;2023-07-13T13:20:17;26.70;60.00
13123;DHT22;6627;50.920;12.050;2023-07-13T13:22:46;26.60;59.00
13123;DHT22;6627;50.920;12.050;2023-07-13T13:27:44;26.60;60.30
13123;DHT22;6627;50.920;12.050;2023-07-13T13:30:13;26.70;60.70
13123;DHT22;6627;50.920;12.050;2023-07-13T13:32:43;26.70;60.40
13123;DHT22;6627;50.920;12.050;2023-07-13T13:35:14;26.80;61.10
13123;DHT22;6627;50.920;12.050;2023-07-13T13:37:43;26.80;60.60
13123;DHT22;6627;50.920;12.050;2023-07-13T13:40:17;26.80;60.80
13123;DHT22;6627;50.920;12.050;2023-07-13T13:45:13;26.80;58.40
13123;DHT22;6627;50.920;12.050;2023-07-13T13:47:44;26.90;60.00
13123;DHT22;6627;50.920;12.050;2023-07-13T13:52:41;26.90;58.70
13123;DHT22;6627;50.920;12.050;2023-07-13T13:55:17;26.90;58.90
13123;DHT22;6627;50.920;12.050;2023-07-13T13:57:46;26.90;59.70
13123;DHT22;6627;50.920;12.050;2023-07-13T14:02:46;27.20;58.40
13123;DHT22;6627;50.920;12.050;2023-07-13T14:05:20;27.10;57.40
13123;DHT22;6627;50.920;12.050;2023-07-13T14:07:49;27.20;58.00
13123;DHT22;6627;50.920;12.050;2023-07-13T14:10:19;27.20;58.00
13123;DHT22;6627;50.920;12.050;2023-07-13T14:12:48;27.20;59.80
13123;DHT22;6627;50.920;12.050;2023-07-13T14:15:23;27.10;57.70
13123;DHT22;6627;50.920;12.050;2023-07-13T14:17:53;27.20;58.90
13123;DHT22;6627;50.920;12.050;2023-07-13T14:20:22;26.90;57.00
13123;DHT22;6627;50.920;12.050;2023-07-13T14:22:52;26.90;57.60
13123;DHT22;6627;50.920;12.050;2023-07-13T14:25:22;26.90;61.90
13123;DHT22;6627;50.920;12.050;2023-07-13T14:27:53;27.10;57.70
13123;DHT22;6627;50.920;12.050;2023-07-13T14:30:25;27.00;56.30
13123;DHT22;6627;50.920;12.050;2023-07-13T14:32:53;26.90;58.00
13123;DHT22;6627;50.920;12.050;2023-07-13T14:35:22;27.00;58.60
13123;DHT22;6627;50.920;12.050;2023-07-13T14:37:50;27.20;60.00
13123;DHT22;6627;50.920;12.050;2023-07-13T14:40:24;27.10;58.20
13123;DHT22;6627;50.920;12.050;2023-07-13T14:45:21;27.20;55.30
13123;DHT22;6627;50.920;12.050;2023-07-13T14:47:49;27.20;57.30
13123;DHT22;6627;50.920;12.050;2023-07-13T14:50:18;27.20;56.10
13123;DHT22;6627;50.920;12.050;2023-07-13T14:52:48;27.20;56.80
13123;DHT22;6627;50.920;12.050;2023-07-13T14:55:18;27.10;56.60
13123;DHT22;6627;50.920;12.050;2023-07-13T14:57:48;27.00;56.40
13123;DHT22;6627;50.920;12.050;2023-07-13T15:00:17;26.50;56.60
13123;DHT22;6627;50.920;12.050;2023-07-13T15:02:48;26.40;56.80
13123;DHT22;6627;50.920;12.050;2023-07-13T15:05:20;26.70;60.00
13123;DHT22;6627;50.920;12.050;2023-07-13T15:10:20;26.90;55.70
13123;DHT22;6627;50.920;12.050;2023-07-13T15:12:52;26.90;57.70
13123;DHT22;6627;50.920;12.050;2023-07-13T15:15:20;26.90;57.50
13123;DHT22;6627;50.920;12.050;2023-07-13T15:17:47;26.90;56.60
13123;DHT22;6627;50.920;12.050;2023-07-13T15:20:18;27.00;57.60
13123;DHT22;6627;50.920;12.050;2023-07-13T15:22:50;27.20;58.80
13123;DHT22;6627;50.920;12.050;2023-07-13T15:25:19;27.40;57.30
13123;DHT22;6627;50.920;12.050;2023-07-13T15:27:48;27.40;55.50
13123;DHT22;6627;50.920;12.050;2023-07-13T15:30:17;27.30;54.30
13123;DHT22;6627;50.920;12.050;2023-07-13T15:35:15;27.00;55.00
13123;DHT22;6627;50.920;12.050;2023-07-13T15:37:44;26.80;54.20
13123;DHT22;6627;50.920;12.050;2023-07-13T15:40:13;26.70;55.70
13123;DHT22;6627;50.920;12.050;2023-07-13T15:42:41;26.70;55.10
13123;DHT22;6627;50.920;12.050;2023-07-13T15:45:17;26.80;55.20
13123;DHT22;6627;50.920;12.050;2023-07-13T15:47:46;26.50;56.10
13123;DHT22;6627;50.920;12.050;2023-07-13T15:50:16;26.40;56.50
13123;DHT22;6627;50.920;12.050;2023-07-13T15:52:49;26.20;55.90
13123;DHT22;6627;50.920;12.050;2023-07-13T15:55:18;26.40;56.00
13123;DHT22;6627;50.920;12.050;2023-07-13T15:57:47;26.50;56.20
13123;DHT22;6627;50.920;12.050;2023-07-13T16:00:22;26.70;57.00
13123;DHT22;6627;50.920;12.050;2023-07-13T16:02:52;26.80;56.90
13123;DHT22;6627;50.920;12.050;2023-07-13T16:07:52;26.30;56.70
13123;DHT22;6627;50.920;12.050;2023-07-13T16:10:24;26.10;56.20
13123;DHT22;6627;50.920;12.050;2023-07-13T16:12:54;26.10;57.00
13123;DHT22;6627;50.920;12.050;2023-07-13T16:15:24;26.40;56.40
13123;DHT22;6627;50.920;12.050;2023-07-13T16:17:51;26.40;56.10
13123;DHT22;6627;50.920;12.050;2023-07-13T16:20:18;26.40;56.20
13123;DHT22;6627;50.920;12.050;2023-07-13T16:22:49;26.50;56.50
13123;DHT22;6627;50.920;12.050;2023-07-13T16:25:21;26.20;55.60
13123;DHT22;6627;50.920;12.050;2023-07-13T16:27:52;25.90;56.70
13123;DHT22;6627;50.920;12.050;2023-07-13T16:30:29;25.80;55.50
13123;DHT22;6627;50.920;12.050;2023-07-13T16:33:00;25.60;55.60
13123;DHT22;6627;50.920;12.050;2023-07-13T16:35:32;25.70;56.60
13123;DHT22;6627;50.920;12.050;2023-07-13T16:38:02;25.60;56.90
13123;DHT22;6627;50.920;12.050;2023-07-13T16:40:32;25.50;56.90
13123;DHT22;6627;50.920;12.050;2023-07-13T16:43:01;25.60;57.30
13123;DHT22;6627;50.920;12.050;2023-07-13T16:45:32;25.60;56.90
13123;DHT22;6627;50.920;12.050;2023-07-13T16:48:01;25.60;56.60
13123;DHT22;6627;50.920;12.050;2023-07-13T16:50:38;25.70;57.00
13123;DHT22;6627;50.920;12.050;2023-07-13T16:53:20;25.70;57.80
13123;DHT22;6627;50.920;12.050;2023-07-13T16:55:49;25.50;57.20
13123;DHT22;6627;50.920;12.050;2023-07-13T16:58:18;25.70;58.00
13123;DHT22;6627;50.920;12.050;2023-07-13T17:00:48;25.80;58.40
13123;DHT22;6627;50.920;12.050;2023-07-13T17:03:18;25.80;58.60
13123;DHT22;6627;50.920;12.050;2023-07-13T17:08:16;25.70;59.20
13123;DHT22;6627;50.920;12.050;2023-07-13T17:10:47;25.70;59.90
13123;DHT22;6627;50.920;12.050;2023-07-13T17:13:17;25.80;60.00
13123;DHT22;6627;50.920;12.050;2023-07-13T17:15:46;25.60;60.00
13123;DHT22;6627;50.920;12.050;2023-07-13T17:20:46;25.50;60.50